createdAt,value
2019-06-09T00:01:42.857Z,96917.70
2019-06-09T00:04:17.737Z,96917.05
2019-06-09T00:06:50.989Z,96916.92
2019-06-09T00:09:23.934Z,96913.28
2019-06-09T00:12:00.783Z,96911.86
2019-06-09T00:14:33.094Z,96912.27
2019-06-09T00:17:07.733Z,96909.91
2019-06-09T00:19:39.183Z,96906.84
2019-06-09T00:22:12.603Z,96911.23
2019-06-09T00:24:44.025Z,96915.25
2019-06-09T00:27:19.752Z,96919.37
2019-06-09T00:29:52.007Z,96924.73
2019-06-09T00:32:27.588Z,96918.59
2019-06-09T00:35:02.373Z,96915.89
2019-06-09T00:37:34.229Z,96916.78
2019-06-09T00:40:08.180Z,96925.72
2019-06-09T00:42:43.309Z,96926.72
2019-06-09T00:45:16.631Z,96916.24
2019-06-09T00:47:50.162Z,96921.28
2019-06-09T00:50:22.256Z,96919.14
2019-06-09T00:52:57.884Z,96917.31
2019-06-09T00:55:31.322Z,96919.25
2019-06-09T00:58:07.051Z,96927.34
2019-06-09T01:00:40.186Z,96937.50
2019-06-09T01:03:15.637Z,96923.20
2019-06-09T01:05:49.189Z,96923.15
2019-06-09T01:08:20.389Z,96924.16
2019-06-09T01:10:53.521Z,96932.67
2019-06-09T01:13:28.115Z,96925.42
2019-06-09T01:15:59.741Z,96935.20
2019-06-09T01:18:33.028Z,96929.94
2019-06-09T01:21:07.417Z,96931.84
2019-06-09T01:23:41.906Z,96923.83
2019-06-09T01:26:14.530Z,96921.14
2019-06-09T01:28:48.103Z,96919.00
2019-06-09T01:31:20.378Z,96918.97
2019-06-09T01:33:53.446Z,96919.56
2019-06-09T01:36:28.203Z,96924.89
2019-06-09T01:39:02.567Z,96926.19
2019-06-09T01:41:37.787Z,96917.79
2019-06-09T01:44:12.554Z,96917.94
2019-06-09T01:46:47.925Z,96921.69
2019-06-09T01:49:22.760Z,96921.15
2019-06-09T01:51:57.623Z,96920.53
2019-06-09T01:54:30.034Z,96920.91
2019-06-09T01:57:01.908Z,96922.89
2019-06-09T01:59:37.024Z,96917.34
2019-06-09T02:02:28.284Z,96917.34
2019-06-09T02:04:49.276Z,96916.20
2019-06-09T02:07:23.480Z,96910.16
2019-06-09T02:09:57.913Z,96907.70
2019-06-09T02:12:30.817Z,96905.52
2019-06-09T02:15:02.863Z,96905.82
2019-06-09T02:17:34.701Z,96911.45
2019-06-09T02:20:10.145Z,96909.24
2019-06-09T02:22:42.773Z,96911.19
2019-06-09T02:25:17.556Z,96910.78
2019-06-09T02:27:50.834Z,96913.28
2019-06-09T02:30:36.467Z,96909.33
2019-06-09T02:33:10.993Z,96901.08
2019-06-09T02:35:34.910Z,96903.55
2019-06-09T02:38:08.708Z,96904.58
2019-06-09T02:40:42.877Z,96903.08
2019-06-09T02:43:17.172Z,96902.25
2019-06-09T02:46:31.557Z,96903.43
2019-06-09T02:49:05.484Z,96901.46
2019-06-09T02:51:43.002Z,96904.08
2019-06-09T02:54:15.920Z,96899.92
2019-06-09T02:56:52.576Z,96899.19
2019-06-09T02:59:31.675Z,96902.17
2019-06-09T03:02:02.248Z,96897.42
2019-06-09T03:04:44.392Z,96897.42
2019-06-09T03:07:06.762Z,96895.39
2019-06-09T03:09:42.291Z,96886.61
2019-06-09T03:12:12.757Z,96897.95
2019-06-09T03:14:47.743Z,96897.89
2019-06-09T03:21:02.615Z,96885.45
2019-06-09T03:23:39.480Z,96889.80
2019-06-09T03:26:07.068Z,96881.95
2019-06-09T03:28:44.217Z,96883.87
2019-06-09T03:31:34.173Z,96885.92
2019-06-09T03:35:17.591Z,96888.06
2019-06-09T03:37:21.926Z,96887.66
2019-06-09T03:39:08.259Z,96892.08
2019-06-09T03:41:44.246Z,96889.41
2019-06-09T03:44:14.017Z,96886.45
2019-06-09T03:46:51.472Z,96892.47
2019-06-09T03:49:26.278Z,96891.63
2019-06-09T03:51:58.087Z,96891.31
2019-06-09T03:54:38.230Z,96882.01
2019-06-09T03:57:08.867Z,96876.84
2019-06-09T03:59:47.171Z,96877.08
2019-06-09T04:02:15.480Z,96873.25
2019-06-09T04:04:52.404Z,96877.15
2019-06-09T04:07:31.079Z,96869.71
2019-06-09T04:10:02.673Z,96872.33
2019-06-09T04:12:39.826Z,96874.69
2019-06-09T04:15:08.330Z,96872.66
2019-06-09T04:17:44.041Z,96876.91
2019-06-09T04:20:15.733Z,96873.95
2019-06-09T04:22:53.625Z,96880.20
2019-06-09T04:25:25.468Z,96883.02
2019-06-09T04:27:58.203Z,96879.91
2019-06-09T04:30:40.032Z,96886.22
2019-06-09T04:33:05.680Z,96892.23
2019-06-09T04:35:57.165Z,96891.32
2019-06-09T04:38:11.782Z,96889.73
2019-06-09T04:40:45.166Z,96890.49
2019-06-09T04:43:16.357Z,96890.81
2019-06-09T04:45:48.581Z,96897.13
2019-06-09T04:48:22.417Z,96899.42
2019-06-09T04:50:55.394Z,96898.72
2019-06-09T04:53:32.968Z,96894.33
2019-06-09T04:56:04.577Z,96898.95
2019-06-09T04:58:52.388Z,96899.72
2019-06-09T05:01:13.039Z,96903.47
2019-06-09T05:03:46.879Z,96906.59
2019-06-09T05:06:38.886Z,96905.05
2019-06-09T05:08:54.209Z,96902.78
2019-06-09T05:11:31.084Z,96895.89
2019-06-09T05:14:02.985Z,96903.08
2019-06-09T05:16:38.769Z,96906.00
2019-06-09T05:19:07.725Z,96903.23
2019-06-09T05:21:50.206Z,96903.14
2019-06-09T05:24:16.663Z,96901.45
2019-06-09T05:26:52.547Z,96900.38
2019-06-09T05:29:25.487Z,96908.41
2019-06-09T05:32:01.994Z,96901.23
2019-06-09T05:34:37.030Z,96904.95
2019-06-09T05:37:18.334Z,96900.53
2019-06-09T05:39:46.339Z,96899.77
2019-06-09T05:42:17.651Z,96899.77
2019-06-09T05:44:51.459Z,96901.28
2019-06-09T05:47:26.502Z,96902.61
2019-06-09T05:50:00.954Z,96897.14
2019-06-09T05:52:34.988Z,96896.21
2019-06-09T05:55:11.460Z,96901.77
2019-06-09T05:57:44.709Z,96899.50
2019-06-09T06:00:21.494Z,96896.80
2019-06-09T06:02:56.022Z,96901.66
2019-06-09T06:05:32.215Z,96900.38
2019-06-09T06:08:03.828Z,96892.32
2019-06-09T06:10:37.874Z,96896.67
2019-06-09T06:13:12.138Z,96894.03
2019-06-09T06:15:46.119Z,96895.64
2019-06-09T06:18:21.091Z,96893.91
2019-06-09T06:20:53.886Z,96897.34
2019-06-09T06:23:28.657Z,96889.03
2019-06-09T06:26:03.861Z,96887.57
2019-06-09T06:28:35.405Z,96884.69
2019-06-09T06:31:08.027Z,96881.41
2019-06-09T06:33:42.780Z,96889.33
2019-06-09T06:36:12.901Z,96885.45
2019-06-09T06:38:45.937Z,96884.53
2019-06-09T06:41:21.155Z,96888.97
2019-06-09T06:43:53.090Z,96890.41
2019-06-09T06:46:26.766Z,96884.94
2019-06-09T06:49:01.735Z,96890.45
2019-06-09T06:51:34.051Z,96881.73
2019-06-09T06:54:06.078Z,96882.23
2019-06-09T06:56:42.096Z,96880.29
2019-06-09T06:59:13.511Z,96878.63
2019-06-09T07:01:47.914Z,96878.67
2019-06-09T07:04:22.252Z,96882.73
2019-06-09T07:06:55.864Z,96873.03
2019-06-09T07:09:27.382Z,96872.14
2019-06-09T07:12:01.190Z,96866.64
2019-06-09T07:14:33.369Z,96871.28
2019-06-09T07:17:07.173Z,96863.93
2019-06-09T07:19:42.165Z,96875.83
2019-06-09T07:22:15.533Z,96864.09
2019-06-09T07:24:49.721Z,96863.95
2019-06-09T07:27:26.423Z,96855.53
2019-06-09T07:30:01.164Z,96860.72
2019-06-09T07:32:33.348Z,96848.17
2019-06-09T07:35:07.419Z,96842.81
2019-06-09T07:37:42.826Z,96844.95
2019-06-09T07:40:13.580Z,96836.95
2019-06-09T07:42:47.905Z,96831.39
2019-06-09T07:45:23.093Z,96839.88
2019-06-09T07:47:58.121Z,96839.23
2019-06-09T07:50:31.676Z,96835.80
2019-06-09T07:53:02.964Z,96840.00
2019-06-09T07:55:37.774Z,96827.14
2019-06-09T07:58:11.713Z,96817.22
2019-06-09T08:00:43.841Z,96818.62
2019-06-09T08:03:21.918Z,96812.80
2019-06-09T08:06:00.455Z,96813.11
2019-06-09T08:08:40.517Z,96810.46
2019-06-09T08:11:11.560Z,96797.42
2019-06-09T08:13:45.118Z,96797.91
2019-06-09T08:16:21.313Z,96786.98
2019-06-09T08:18:54.380Z,96793.02
2019-06-09T08:21:31.723Z,96797.03
2019-06-09T08:24:21.665Z,96793.70
2019-06-09T08:26:55.327Z,96787.31
2019-06-09T08:29:27.435Z,96789.39
2019-06-09T08:32:01.259Z,96782.21
2019-06-09T08:34:33.605Z,96784.31
2019-06-09T08:37:13.651Z,96783.30
2019-06-09T08:40:00.772Z,96777.59
2019-06-09T08:42:36.969Z,96778.71
2019-06-09T08:45:10.672Z,96779.59
2019-06-09T08:47:50.361Z,96778.44
2019-06-09T08:50:31.377Z,96785.58
2019-06-09T08:53:11.811Z,96779.76
2019-06-09T08:55:52.058Z,96769.81
2019-06-09T08:58:33.247Z,96775.56
2019-06-09T09:01:13.475Z,96771.97
2019-06-09T09:03:55.865Z,96771.08
2019-06-09T09:06:34.975Z,96769.77
2019-06-09T09:09:22.087Z,96769.95
2019-06-09T09:11:51.886Z,96776.92
2019-06-09T09:14:25.357Z,96772.77
2019-06-09T09:17:05.560Z,96774.51
2019-06-09T09:19:45.058Z,96764.08
2019-06-09T09:22:27.015Z,96761.98
2019-06-09T09:25:18.653Z,96761.34
2019-06-09T09:27:52.238Z,96753.63
2019-06-09T09:30:30.968Z,96749.33
2019-06-09T09:33:05.591Z,96741.52
2019-06-09T09:35:37.176Z,96727.61
2019-06-09T09:38:11.785Z,96726.64
2019-06-09T09:40:45.626Z,96724.13
2019-06-09T09:43:21.265Z,96727.50
2019-06-09T09:45:57.014Z,96728.77
2019-06-09T09:48:31.526Z,96724.91
2019-06-09T09:51:06.084Z,96733.72
2019-06-09T09:53:41.590Z,96734.65
2019-06-09T09:56:14.772Z,96738.92
2019-06-09T09:58:52.094Z,96735.80
2019-06-09T10:01:22.929Z,96737.98
2019-06-09T10:03:57.115Z,96736.75
2019-06-09T10:06:30.912Z,96749.53
2019-06-09T10:09:08.113Z,96736.09
2019-06-09T10:11:41.937Z,96736.09
2019-06-09T10:14:15.097Z,96735.12
2019-06-09T10:16:47.535Z,96740.95
2019-06-09T10:19:21.507Z,96733.00
2019-06-09T10:21:57.593Z,96728.63
2019-06-09T10:24:30.956Z,96717.59
2019-06-09T10:27:02.481Z,96714.61
2019-06-09T10:29:35.189Z,96710.95
2019-06-09T10:32:11.379Z,96715.91
2019-06-09T10:34:44.503Z,96708.24
2019-06-09T10:37:16.247Z,96708.96
2019-06-09T10:40:04.348Z,96706.65
2019-06-09T10:42:24.167Z,96716.20
2019-06-09T10:44:58.257Z,96711.25
2019-06-09T10:47:30.862Z,96715.70
2019-06-09T10:50:04.163Z,96716.61
2019-06-09T10:52:37.911Z,96701.22
2019-06-09T10:55:11.962Z,96703.25
2019-06-09T10:57:44.864Z,96697.18
2019-06-09T11:00:27.740Z,96697.36
2019-06-09T11:02:51.537Z,96696.19
2019-06-09T11:05:24.592Z,96692.05
2019-06-09T11:08:00.854Z,96690.87
2019-06-09T11:10:35.316Z,96684.44
2019-06-09T11:13:06.450Z,96679.63
2019-06-09T11:15:40.105Z,96674.86
2019-06-09T11:18:21.854Z,96670.30
2019-06-09T11:21:05.155Z,96673.55
2019-06-09T11:23:43.515Z,96671.66
2019-06-09T11:26:22.868Z,96666.84
2019-06-09T11:29:04.852Z,96660.89
2019-06-09T11:31:40.716Z,96659.39
2019-06-09T11:34:12.580Z,96659.47
2019-06-09T11:36:44.489Z,96652.02
2019-06-09T11:39:16.608Z,96634.42
2019-06-09T11:41:48.536Z,96632.81
2019-06-09T11:44:25.434Z,96633.72
2019-06-09T11:47:05.686Z,96635.56
2019-06-09T11:49:37.762Z,96641.61
2019-06-09T11:52:13.263Z,96626.25
2019-06-09T11:54:45.539Z,96632.81
2019-06-09T11:57:34.732Z,96631.12
2019-06-09T12:00:15.135Z,96624.94
2019-06-09T12:02:41.688Z,96632.73
2019-06-09T12:05:16.912Z,96631.73
2019-06-09T12:07:51.124Z,96627.30
2019-06-09T12:10:23.523Z,96626.55
2019-06-09T12:12:57.884Z,96627.88
2019-06-09T12:15:30.738Z,96628.09
2019-06-09T12:18:43.473Z,96616.88
2019-06-09T12:21:20.644Z,96609.19
2019-06-09T12:23:54.503Z,96612.23
2019-06-09T12:26:27.544Z,96608.98
2019-06-09T12:29:06.058Z,96604.91
2019-06-09T12:31:35.061Z,96606.88
2019-06-09T12:34:08.119Z,96605.33
2019-06-09T12:36:42.255Z,96601.41
2019-06-09T12:39:15.823Z,96596.87
2019-06-09T12:41:51.311Z,96591.08
2019-06-09T12:44:25.304Z,96585.31
2019-06-09T12:47:01.515Z,96591.26
2019-06-09T12:49:40.683Z,96581.27
2019-06-09T12:52:14.110Z,96585.17
2019-06-09T12:54:49.130Z,96582.71
2019-06-09T12:57:21.822Z,96577.39
2019-06-09T12:59:55.954Z,96576.39
2019-06-09T13:02:28.859Z,96575.64
2019-06-09T13:05:04.240Z,96571.20
2019-06-09T13:07:34.969Z,96565.92
2019-06-09T13:10:08.948Z,96561.73
2019-06-09T13:12:43.168Z,96562.56
2019-06-09T13:15:16.019Z,96557.52
2019-06-09T13:17:51.732Z,96549.95
2019-06-09T13:20:24.256Z,96550.24
2019-06-09T13:22:57.709Z,96546.02
2019-06-09T13:25:34.013Z,96540.37
2019-06-09T13:28:04.815Z,96539.23
2019-06-09T13:30:37.237Z,96533.75
2019-06-09T13:33:14.119Z,96529.55
2019-06-09T13:35:46.174Z,96529.84
2019-06-09T13:38:19.198Z,96522.17
2019-06-09T13:40:53.253Z,96521.61
2019-06-09T13:43:26.314Z,96511.36
2019-06-09T13:46:00.647Z,96514.82
2019-06-09T13:48:34.075Z,96513.55
2019-06-09T13:51:06.599Z,96506.59
2019-06-09T13:53:41.399Z,96503.83
2019-06-09T13:56:15.661Z,96501.26
2019-06-09T13:58:51.129Z,96495.44
2019-06-09T14:01:25.974Z,96494.80
2019-06-09T14:04:04.395Z,96498.86
2019-06-09T14:06:36.280Z,96495.39
2019-06-09T14:09:13.462Z,96495.80
2019-06-09T14:12:01.029Z,96491.23
2019-06-09T14:14:21.176Z,96487.52
2019-06-09T14:16:54.239Z,96481.52
2019-06-09T14:19:26.378Z,96481.20
2019-06-09T14:22:01.393Z,96483.72
2019-06-09T14:24:34.635Z,96480.37
2019-06-09T14:27:07.956Z,96480.98
2019-06-09T14:29:41.721Z,96483.78
2019-06-09T14:32:25.274Z,96488.11
2019-06-09T14:34:49.333Z,96480.81
2019-06-09T14:37:21.771Z,96474.83
2019-06-09T14:39:53.400Z,96481.23
2019-06-09T14:42:36.801Z,96475.27
2019-06-09T14:45:01.024Z,96481.36
2019-06-09T14:47:36.139Z,96480.42
2019-06-09T14:50:12.255Z,96478.30
2019-06-09T14:52:45.058Z,96479.32
2019-06-09T14:55:21.394Z,96478.80
2019-06-09T14:57:53.477Z,96473.34
2019-06-09T15:00:26.868Z,96477.23
2019-06-09T15:03:00.770Z,96474.22
2019-06-09T15:05:32.894Z,96464.12
2019-06-09T15:08:07.881Z,96467.35
2019-06-09T15:10:41.149Z,96460.98
2019-06-09T15:13:16.044Z,96461.94
2019-06-09T15:15:51.698Z,96459.98
2019-06-09T15:18:26.389Z,96455.84
2019-06-09T15:21:01.690Z,96457.23
2019-06-09T15:23:35.790Z,96447.91
2019-06-09T15:26:07.823Z,96443.17
2019-06-09T15:28:42.080Z,96441.67
2019-06-09T15:31:15.944Z,96444.00
2019-06-09T15:33:50.594Z,96440.60
2019-06-09T15:36:24.671Z,96443.20
2019-06-09T15:39:00.900Z,96438.91
2019-06-09T15:41:34.384Z,96432.90
2019-06-09T15:44:07.848Z,96436.63
2019-06-09T15:46:41.313Z,96435.38
2019-06-09T15:49:15.906Z,96428.57
2019-06-09T15:51:50.736Z,96428.69
2019-06-09T15:54:25.459Z,96423.11
2019-06-09T15:57:00.822Z,96421.91
2019-06-09T15:59:35.351Z,96419.77
2019-06-09T16:02:09.456Z,96420.04
2019-06-09T16:04:41.535Z,96412.92
2019-06-09T16:07:13.503Z,96406.66
2019-06-09T16:09:45.892Z,96404.66
2019-06-09T16:12:18.194Z,96400.14
2019-06-09T16:14:51.683Z,96401.09
2019-06-09T16:17:24.612Z,96399.28
2019-06-09T16:19:57.860Z,96397.32
2019-06-09T16:22:33.681Z,96391.41
2019-06-09T16:25:09.610Z,96383.52
2019-06-09T16:27:52.205Z,96386.44
2019-06-09T16:30:22.480Z,96384.22
2019-06-09T16:32:54.000Z,96392.44
2019-06-09T16:35:25.165Z,96388.89
2019-06-09T16:37:57.996Z,96380.07
2019-06-09T16:40:35.622Z,96382.31
2019-06-09T16:43:07.997Z,96379.80
2019-06-09T16:45:42.743Z,96379.91
2019-06-09T16:48:14.982Z,96380.05
2019-06-09T16:50:57.666Z,96375.80
2019-06-09T16:53:25.084Z,96380.34
2019-06-09T16:55:58.079Z,96385.22
2019-06-09T16:58:35.322Z,96377.38
2019-06-09T17:01:06.170Z,96376.81
2019-06-09T17:03:41.423Z,96377.78
2019-06-09T17:06:14.179Z,96379.27
2019-06-09T17:08:52.093Z,96372.38
2019-06-09T17:11:26.914Z,96370.94
2019-06-09T17:14:06.428Z,96366.27
2019-06-09T17:16:36.235Z,96371.52
2019-06-09T17:19:08.204Z,96360.72
2019-06-09T17:21:41.329Z,96354.14
2019-06-09T17:24:14.262Z,96351.71
2019-06-09T17:26:47.215Z,96352.73
2019-06-09T17:29:21.867Z,96347.48
2019-06-09T17:31:54.320Z,96346.59
2019-06-09T17:34:28.083Z,96335.95
2019-06-09T17:37:02.377Z,96338.58
2019-06-09T17:39:34.390Z,96334.52
2019-06-09T17:42:11.134Z,96335.05
2019-06-09T17:44:42.632Z,96334.53
2019-06-09T17:47:15.391Z,96330.73
2019-06-09T17:49:50.735Z,96333.43
2019-06-09T17:52:25.478Z,96325.28
2019-06-09T17:55:00.761Z,96330.02
2019-06-09T17:57:41.147Z,96332.63
2019-06-09T18:00:10.964Z,96333.55
2019-06-09T18:02:59.431Z,96327.09
2019-06-09T18:05:21.011Z,96331.18
2019-06-09T18:07:57.191Z,96323.90
2019-06-09T18:10:32.855Z,96332.41
2019-06-09T18:13:02.529Z,96337.34
2019-06-09T18:15:40.465Z,96334.30
2019-06-09T18:18:09.159Z,96337.03
2019-06-09T18:20:42.013Z,96345.69
2019-06-09T18:23:15.609Z,96339.55
2019-06-09T18:25:47.646Z,96348.11
2019-06-09T18:28:21.593Z,96344.83
2019-06-09T18:30:58.046Z,96342.94
2019-06-09T18:33:32.981Z,96349.78
2019-06-09T18:36:04.713Z,96346.62
2019-06-09T18:38:38.552Z,96339.85
2019-06-09T18:41:12.578Z,96343.78
2019-06-09T18:43:48.264Z,96346.39
2019-06-09T18:46:23.062Z,96344.33
2019-06-09T18:48:56.690Z,96343.08
2019-06-09T18:51:29.851Z,96341.86
2019-06-09T18:54:04.131Z,96338.62
2019-06-09T18:56:36.971Z,96335.50
2019-06-09T18:59:10.961Z,96331.77
2019-06-09T19:01:42.731Z,96334.29
2019-06-09T19:04:16.709Z,96339.66
2019-06-09T19:06:52.021Z,96339.50
2019-06-09T19:09:24.796Z,96336.27
2019-06-09T19:11:57.799Z,96329.70
2019-06-09T19:14:31.091Z,96335.27
2019-06-09T19:17:07.566Z,96340.30
2019-06-09T19:19:39.769Z,96334.95
2019-06-09T19:22:12.875Z,96346.14
2019-06-09T19:24:45.765Z,96337.58
2019-06-09T19:27:16.935Z,96344.69
2019-06-09T19:29:50.261Z,96342.57
2019-06-09T19:32:22.185Z,96342.90
2019-06-09T19:34:55.047Z,96332.69
2019-06-09T19:37:30.156Z,96338.79
2019-06-09T19:40:02.996Z,96338.02
2019-06-09T19:42:34.894Z,96337.48
2019-06-09T19:45:13.454Z,96338.45
2019-06-09T19:47:45.415Z,96341.50
2019-06-09T19:50:16.269Z,96338.89
2019-06-09T19:52:51.872Z,96343.36
2019-06-09T19:55:26.121Z,96347.54
2019-06-09T19:57:58.264Z,96350.58
2019-06-09T20:00:47.301Z,96352.06
2019-06-09T20:03:20.902Z,96352.50
2019-06-09T20:05:54.254Z,96352.13
2019-06-09T20:08:28.134Z,96344.67
2019-06-09T20:11:02.303Z,96338.33
2019-06-09T20:13:35.508Z,96332.06
2019-06-09T20:16:16.270Z,96336.20
2019-06-09T20:18:52.254Z,96339.75
2019-06-09T20:21:25.848Z,96342.53
2019-06-09T20:24:01.394Z,96343.95
2019-06-09T20:26:34.552Z,96330.88
2019-06-09T20:29:09.024Z,96321.00
2019-06-09T20:31:44.231Z,96322.98
2019-06-09T20:34:16.343Z,96323.34
2019-06-09T20:36:51.205Z,96321.66
2019-06-09T20:39:23.237Z,96320.63
2019-06-09T20:41:57.850Z,96307.72
2019-06-09T20:44:30.744Z,96304.37
2019-06-09T20:47:02.275Z,96296.77
2019-06-09T20:49:34.404Z,96297.95
2019-06-09T20:52:06.232Z,96288.06
2019-06-09T20:54:37.467Z,96286.84
2019-06-09T20:57:11.843Z,96286.33
2019-06-09T20:59:46.814Z,96293.02
2019-06-09T21:02:19.328Z,96294.35
2019-06-09T21:04:53.274Z,96291.59
2019-06-09T21:07:26.804Z,96283.47
2019-06-09T21:10:01.370Z,96286.63
2019-06-09T21:12:35.429Z,96285.22
2019-06-09T21:15:07.561Z,96287.75
2019-06-09T21:17:45.343Z,96290.05
2019-06-09T21:20:15.582Z,96286.53
2019-06-09T21:22:47.968Z,96289.26
2019-06-09T21:25:21.460Z,96286.16
2019-06-09T21:27:54.588Z,96282.74
2019-06-09T21:30:33.039Z,96280.08
2019-06-09T21:33:04.766Z,96273.14
2019-06-09T21:35:37.566Z,96270.23
2019-06-09T21:38:12.173Z,96270.84
2019-06-09T21:40:43.558Z,96271.17
2019-06-09T21:43:17.538Z,96265.02
2019-06-09T21:45:55.826Z,96259.30
2019-06-09T21:48:25.756Z,96257.72
2019-06-09T21:50:58.628Z,96251.08
2019-06-09T21:53:31.540Z,96244.23
2019-06-09T21:56:07.404Z,96244.42
2019-06-09T21:58:43.278Z,96235.30
2019-06-09T22:01:16.580Z,96241.23
2019-06-09T22:03:54.490Z,96239.56
2019-06-09T22:06:28.200Z,96240.69
2019-06-09T22:09:05.629Z,96230.22
2019-06-09T22:11:38.009Z,96234.28
2019-06-09T22:14:11.885Z,96238.52
2019-06-09T22:16:57.689Z,96243.98
2019-06-09T22:19:17.754Z,96244.82
2019-06-09T22:21:52.775Z,96238.47
2019-06-09T22:24:24.795Z,96242.29
2019-06-09T22:26:57.601Z,96243.25
2019-06-09T22:29:31.136Z,96240.34
2019-06-09T22:32:03.682Z,96244.80
2019-06-09T22:34:34.877Z,96242.33
2019-06-09T22:37:06.808Z,96252.87
2019-06-09T22:39:38.028Z,96255.34
2019-06-09T22:42:12.156Z,96262.16
2019-06-09T22:44:44.754Z,96263.05
2019-06-09T22:47:25.292Z,96265.91
2019-06-09T22:49:52.677Z,96265.62
2019-06-09T22:52:25.994Z,96262.84
2019-06-09T22:54:59.607Z,96264.80
2019-06-09T22:57:31.907Z,96262.49
2019-06-09T23:00:11.355Z,96259.70
2019-06-09T23:02:41.072Z,96259.52
2019-06-09T23:05:13.072Z,96258.77
2019-06-09T23:07:46.028Z,96263.92
2019-06-09T23:10:21.750Z,96260.36
2019-06-09T23:12:56.936Z,96257.83
2019-06-09T23:15:31.467Z,96256.58
2019-06-09T23:18:04.326Z,96256.88
2019-06-09T23:20:36.303Z,96252.52
2019-06-09T23:23:11.365Z,96253.11
2019-06-09T23:25:45.148Z,96249.34
2019-06-09T23:28:21.157Z,96245.61
2019-06-09T23:30:55.664Z,96248.03
2019-06-09T23:33:27.924Z,96251.94
2019-06-09T23:36:01.011Z,96252.33
2019-06-09T23:38:34.707Z,96249.21
2019-06-09T23:41:06.254Z,96242.94
2019-06-09T23:43:41.130Z,96243.63
2019-06-09T23:46:13.124Z,96238.22
2019-06-09T23:48:47.213Z,96231.25
2019-06-09T23:51:21.666Z,96235.91
2019-06-09T23:53:54.592Z,96227.95
2019-06-09T23:56:30.607Z,96221.49
2019-06-09T23:59:05.214Z,96220.78
